Lars Baumann

Scout - St. Pauli
21 Oct 2027
Thursday
Process

Personality

Adaptability (7) Ambition (7) Controversy (18) Loyalty (3) Pressure (19) Professionalism (11) Sportsmanship (1) Temperament (9)

Profile

Coaching Style Democratic
License National A
Determination 11
Man Management 7
Motivating 13
Discipline 6
Job Satisfaction
100%
Fatigue
0%
Role Scout
Wage 75.1K p/w
Contract 14.03.2028

Performance

Behaviour Good
Training Effectiveness
49%
Player Development
35%
Injury Prevention
50%
Tactical Implementation
60%

Recent Events

Attended a recruitment meeting now
Recommended a transfer target now
Recommended a transfer target now
Recommended a transfer target now
Recommended a transfer target 7d ago
Recommended a transfer target 7d ago
Recommended a transfer target 7d ago
Attended a recruitment meeting 7d ago

Currently Monitoring

141
Player Club Status Ability Confidence Watched Last Observed Latest Vote
Luca Reggiani Borussia Dortmund Negotiating 113 / 130 72% 1 30.08.2027 Approve
Dylan Lawlor Cardiff City Active 125 / 122 40% 2 09.08.2027 -
Salvador Blopá Casa Pia Active 115 / 119 40% 1 09.08.2027 -
Toni Tamarit Alverca Active 117 / 123 40% 1 09.08.2027 -
Christos Mouzakitis Hull City Active 131 / 133 40% 6 02.08.2027 -
Daniel Dennis Ikorodu City Active 95 / 80 40% 1 02.08.2027 -
Bernardo Lima Porto Active 104 / 114 40% 1 02.08.2027 -
Rodrigo Parra Guadalajara Active 103 / 118 40% 3 17.06.2027 -
Stevie Bausor Northampton Town Active 113 / 112 40% 1 17.06.2027 -
Richard Medvedev Khazar Active 101 / 108 40% 2 06.06.2027 -
David Cordova Atletico Venezuela Active 94 / 86 40% 3 06.06.2027 -
Muhammadyusuf Sobirov Bunyodkor Active 98 / 93 40% 2 03.06.2027 -
Konstantin Tyukavin Inter Negotiating 132 / 133 66% 1 01.06.2027 Approve
Léo Scienza Southampton Active 136 / 136 66% 1 01.06.2027 Approve
Youri Baas Bournemouth Active 144 / 147 67% 1 01.06.2027 Approve
Marcos Antonio Sport Recife Lost 138 / 138 68% 1 01.06.2027 Approve
Terem Moffi Hamburger SV Active 126 / 124 72% 1 01.06.2027 Approve
Lucas Høgsberg RC Strasbourg Active 135 / 133 40% 2 31.05.2027 -
Percy Jali Free State Stars Active 87 / 90 40% 1 31.05.2027 -
Assane Diao Lazio Active 141 / 149 40% 8 30.05.2027 -
Ibrahim Maza Bayer Leverkusen Lost 142 / 161 40% 4 30.05.2027 -
Shea Lacey Wolverhampton Active 121 / 119 40% 5 29.05.2027 -
Matías Gómez Granada Active 110 / 120 40% 3 29.05.2027 -
Endrick Real Madrid Active 149 / 151 40% 10 28.05.2027 -
Jayden Addai Como Active 133 / 131 40% 5 28.05.2027 -
Simon Caillet Sion Active 85 / 99 40% 2 28.05.2027 -
Olívio Tomé Benfica Active 114 / 116 40% 1 28.05.2027 -
Rodrigo Mora AS Roma Active 138 / 138 40% 6 26.05.2027 -
Can Uzun Eintracht Frankfurt Active 142 / 138 40% 7 26.05.2027 -
Caleb Yirenkyi Coventry City Active 132 / 137 40% 4 25.05.2027 -
Othmane Maamma Watford Active 123 / 126 40% 3 25.05.2027 -
Yussif Saidu Zaragoza Active 119 / 120 40% 2 25.05.2027 -
Kazunari Kita Real Sociedad Active 102 / 101 40% 1 25.05.2027 -
Adam Bakoune Ospitaletto Active 95 / 101 40% 1 24.05.2027 -
Kees Smit AZ Active 138 / 145 40% 1 24.05.2027 -
Jan Virgili Club Brugge Active 127 / 131 40% 7 22.05.2027 -
Ethan Williams Peterborough United Active 118 / 118 40% 4 21.05.2027 -
Leo Castledine Middlesbrough Active 124 / 123 40% 5 20.05.2027 -
Rayane Bounida Ajax Active 134 / 133 40% 1 20.05.2027 -
Warren Zaïre-Emery Paris Saint-Germain Active 162 / 167 40% 4 19.05.2027 -
Yusi Alavés Active 134 / 138 40% 7 17.05.2027 -
Rayan Bournemouth Active 133 / 144 40% 5 16.05.2027 -
Juan Manuel Centurión Independiente Active 91 / 97 40% 1 15.05.2027 -
Cyriaque Irié VfL Wolfsburg Active 129 / 117 40% 3 13.05.2027 -
Izan Merino Málaga Active 128 / 124 40% 3 12.05.2027 -
Jobe Bellingham Köln Active 138 / 140 40% 3 09.05.2027 -
Woody Williamson Alverca Active 89 / 99 40% 1 09.05.2027 -
Luca Neu Utrecht Active 93 / 102 40% 1 09.05.2027 -
Mfundo Vilakazi Kaizer Chiefs Active 111 / 124 40% 4 06.05.2027 -
Jofre Torrents Ajax Active 123 / 130 40% 2 06.05.2027 -
Joel McGregor Swindon Town Active 88 / 101 40% 2 04.05.2027 -
Kevin Vazquez Cruz Azul Active 133 / 142 40% 2 04.05.2027 -
Pablo García Racing Santander Active 127 / 130 40% 3 30.04.2027 -
Oscar Schwartau Norwich City Active 117 / 136 40% 1 30.04.2027 -
Ruan Alanyaspor Active 134 / 114 40% 1 27.04.2027 -
Lander Astiazarán Real Sociedad Active 100 / 111 40% 1 25.04.2027 -
Jayden Luker Barnet Active 92 / 106 40% 3 24.04.2027 -
Senny Mayulu Paris Saint-Germain Active 150 / 148 40% 1 24.04.2027 -
David Mella Deportivo La Coruña Active 125 / 124 40% 2 23.04.2027 -
Jesús Rodríguez Como Active 147 / 155 40% 2 23.04.2027 -
Alexandr Degtev Orenburg Active 109 / 113 40% 3 19.04.2027 -
Elis Bishesari IFK Goteborg Active 130 / 121 40% 2 19.04.2027 -
Calum Agius Crewe Alexandra Active 98 / 97 40% 1 19.04.2027 -
Riley Owen Trento Active 106 / 114 40% 1 16.04.2027 -
Bernard Sulemana Hasaacas Active 93 / 85 40% 2 10.04.2027 -
Tommaso Orsini Sambenedettese Active 95 / 112 40% 3 10.04.2027 -
Ramiro Giannone Tours Active 93 / 101 40% 1 10.04.2027 -
Gianluca Prestianni Benfica Active 143 / 135 40% 1 08.04.2027 -
Zack Nelson Bromley Active 99 / 99 40% 1 08.04.2027 -
James Dornelly Peterborough United Active 104 / 118 40% 1 06.04.2027 -
Lautaro Herrera Estudiantes Active 109 / 102 40% 2 04.04.2027 -
Samir El Mourabet RC Strasbourg Active 118 / 133 40% 2 03.04.2027 -
Williams Mothiba Black Aces Active 93 / 91 40% 3 24.03.2027 -
Jonás Luna Santa Clara Active 113 / 132 40% 4 21.03.2027 -
Antonio Nusa RB Leipzig Active 150 / 162 40% 1 21.03.2027 -
Martín Almeida Montevideo City Torque Active 92 / 109 40% 2 15.03.2027 -
Yves Da Silva Chamois Niortais Active 109 / 110 40% 1 15.03.2027 -
Luca Martelli Forli Active 94 / 92 40% 1 05.03.2027 -
Federico Bonilla Nacional Active 95 / 94 40% 1 05.03.2027 -
Andrés Martín Racing Santander Active 139 / 143 40% 1 31.12.2026 -
Ozziel Herrera Tigres Active 140 / 137 40% 1 31.12.2026 -
Erick Sánchez OGC Nice Negotiating 136 / 132 40% 1 31.12.2026 Needs More Info
Daniil Khudyakov Sturm Graz Active 121 / 129 40% 4 30.12.2026 -
Guilherme Fernandes Córdoba Active 128 / 134 40% 2 30.12.2026 -
Hugo Souza Corinthians Active 147 / 140 40% 1 30.12.2026 -
Murphy Cooper Plymouth Argyle Active 114 / 121 40% 3 29.12.2026 -
João Virgínia Wolverhampton Active 123 / 129 40% 1 29.12.2026 -
George Wickens Lincoln City Active 118 / 107 40% 2 28.12.2026 -
Robin Roefs Sunderland Active 142 / 153 40% 2 24.12.2026 -
Lukas Gütlbauer Wolfsberger AC Active 120 / 108 40% 1 24.12.2026 -
Matías Fernández-Pardo Newcastle United Active 137 / 153 40% 2 23.12.2026 -
Axel Kayombo Sturm Graz Active 106 / 114 40% 1 23.12.2026 -
Raúl Rangel Sporting CP Active 128 / 142 40% 4 22.12.2026 -
Kauã Elias Anderlecht Active 133 / 125 40% 3 22.12.2026 -
Mads Hermansen West Ham United Active 136 / 130 40% 2 22.12.2026 -
Beau Reus Waasland-Beveren Active 121 / 134 40% 1 22.12.2026 -
Will Lankshear Middlesbrough Active 118 / 127 40% 4 20.12.2026 -
Iwan Morgan Grimsby Town Active 107 / 113 40% 2 18.12.2026 -
Rocco Vata Watford Active 122 / 117 40% 2 16.12.2026 -
Thalys Almería Active 121 / 127 40% 1 16.12.2026 -
Vivaldo Semedo Watford Active 116 / 114 40% 1 12.12.2026 -
Mile Svilar RB Leipzig Active 168 / 160 40% 5 11.12.2026 -
Mio Backhaus SC Freiburg Active 132 / 131 40% 3 11.12.2026 -
Gaëtan Poussin Red Star Active 128 / 124 40% 1 11.12.2026 -
Michael Cooper Sheffield United Active 133 / 121 40% 4 10.12.2026 -
Lévy Néne FC Nordsjaelland Active 118 / 119 40% 1 09.12.2026 -
Unai Marrero Real Sociedad Active 129 / 129 40% 2 07.12.2026 -
Kostantis Tzolakis Hull City Active 146 / 138 40% 2 07.12.2026 -
Radek Vítek Middlesbrough Active 135 / 132 40% 2 04.12.2026 -
Bradley Mabunda SuperSport United Active 117 / 108 40% 2 04.12.2026 -
Yehvann Diouf OGC Nice Active 136 / 132 40% 2 30.11.2026 -
Julen Agirrezabala Racing Santander Active 147 / 138 40% 3 30.11.2026 -
Pol Tristán Barnsley Active 118 / 120 40% 1 29.11.2026 -
Erick Reyes Toluca Active 151 / 149 40% 1 29.11.2026 -
Adrien Llukes Sion Active 85 / 100 40% 1 26.11.2026 -
Grégoire Coudert Burnley Active 126 / 132 40% 4 24.11.2026 -
Jonmi Magunagoitia Eibar Active 118 / 128 40% 1 24.11.2026 -
Niklas Steffen Thun Active 121 / 122 40% 4 21.11.2026 -
Pascal Loretz Luzern Active 119 / 130 40% 3 21.11.2026 -
Leon Grgić Sturm Graz Active 112 / 119 40% 1 19.11.2026 -
Luis Ingolotti Atlético Tucumán Active 115 / 106 40% 1 15.11.2026 -
Niklas Hedl Zurich Active 126 / 128 40% 3 12.11.2026 -
Facinet Conté Young Boys Active 119 / 112 40% 1 08.11.2026 -
Caoimhin Kelleher Brentford Active 145 / 138 40% 1 05.11.2026 -
Jamie Cumming Oxford United Active 117 / 122 40% 1 05.11.2026 -
Stefan Drljača VfB Stuttgart Active 117 / 109 40% 1 02.11.2026 -
Sidiki Chérif Coventry City Active 119 / 125 40% 1 02.11.2026 -
Nicolás Sumavil Platense Active 118 / 130 40% 2 20.10.2026 -
Agustín Lastra Estudiantes Active 121 / 122 40% 2 16.10.2026 -
Francisco Salerno Defensores Unidos Active 118 / 105 40% 1 10.10.2026 -
Andriy Lunin Real Madrid Active 160 / 147 40% 1 08.10.2026 -
Pol Lozano Espanyol Active 142 / 137 40% 1 10.09.2026 -
Aitor Paredes Athletic Bilbao Active 147 / 157 40% 1 10.09.2026 -
Dani Vivian Athletic Bilbao Active 158 / 143 40% 1 10.09.2026 -
Tyler Adams Bournemouth Active 152 / 146 40% 2 09.09.2026 -
Ethan Ampadu Leeds United Active 148 / 140 40% 1 09.09.2026 -
Frans Krätzig Red Bull Salzburg Active 135 / 129 40% 1 09.09.2026 -
Hiroki Ito Bayern Munich Active 153 / 152 40% 1 08.09.2026 -
James Cardona La Equidad Active 145 / 131 40% 1 08.09.2026 -
Ismael Saibari Bayern Munich Active 152 / 152 40% 1 03.08.2026 -
Isaac Schmidt Young Boys Active 120 / 121 40% 1 03.08.2026 -